Diamond Point, New York
Current Conditions -  °F | °C
As of 8:53 AM on Wednesday 26 Nov 2014 (Local Time) from KGFL Reporting Station
Overcast Overcast  
Wind Chill: 32°   Ceiling: 11000
Heat Index: 37°   Visibility: 10mi
Dew Point: 24°   Wind: 6mph
Humidity: 59%   Direction: 20°NNE
Pressure: 30.19"   Gusts: NA
Location:  43.48°N, 73.69°W
Report Text: KGFL 261353Z AUTO 02005KT 10SM OVC110 03/M04 A3019 RMK AO2 SLP232 T00281044
Loading
Personal Weather Stations






























Interactive Weather Map New forecast layout! Learn more

10-Day Weather Forecast

Advertisements
Track Severe Weather on mobile